Time;durP1;ratioP1;P1;durP2;ratioP2;P2;SDS_P1;SDS_P2;PMS_P1;PMS_P2;Temp;Humidity;BMP_temperature;BMP_pressure;BME280_temperature;BME280_humidity;BME280_pressure;Samples;Min_cycle;Max_cycle;Signal;HPM_P1;HPM_P2
2024/03/29 00:00:41;;;;;;;2.77;0.80;;;6.80;99.90;6.60;98987.00;;;;4891866;28;94145;-66
2024/03/29 00:03:07;;;;;;;0.63;0.57;;;6.80;99.90;6.60;98988.00;;;;4891612;28;111355;-64
2024/03/29 00:05:33;;;;;;;0.70;0.53;;;6.70;99.90;6.60;99000.00;;;;4892724;28;123199;-64
2024/03/29 00:07:59;;;;;;;0.80;0.50;;;7.30;99.90;6.70;98991.00;;;;4896209;28;93175;-65
2024/03/29 00:10:25;;;;;;;0.77;0.50;;;6.80;99.90;6.80;98997.00;;;;4891913;28;108933;-64
2024/03/29 00:12:51;;;;;;;0.57;0.50;;;6.80;99.90;6.90;99010.00;;;;4893200;28;121703;-66
2024/03/29 00:15:17;;;;;;;0.30;0.30;;;7.00;99.90;7.00;99000.00;;;;4890910;28;121891;-64
2024/03/29 00:17:42;;;;;;;0.83;0.50;;;7.00;99.90;7.10;99000.00;;;;4894642;28;100878;-65
2024/03/29 00:20:08;;;;;;;0.60;0.40;;;7.10;99.90;7.20;99009.00;;;;4892245;28;108115;-66
2024/03/29 00:22:35;;;;;;;0.20;0.20;;;7.30;99.90;7.40;99006.00;;;;4892670;28;111784;-65
2024/03/29 00:25:01;;;;;;;0.63;0.50;;;7.40;99.90;7.50;99003.00;;;;4893553;28;96792;-65
2024/03/29 00:27:28;;;;;;;0.57;0.50;;;7.50;99.90;7.60;99010.00;;;;4891899;28;109812;-65
2024/03/29 00:29:54;;;;;;;0.30;0.30;;;7.60;99.90;7.60;99005.00;;;;4893631;28;93714;-64
2024/03/29 00:32:21;;;;;;;0.33;0.33;;;7.70;99.90;7.70;99006.00;;;;4891564;28;95926;-64
2024/03/29 00:34:49;;;;;;;0.97;0.50;;;7.80;99.90;7.80;99011.00;;;;4900127;28;93684;-64
2024/03/29 00:37:15;;;;;;;0.70;0.40;;;7.80;99.80;7.80;99027.00;;;;4904418;28;92064;-65
2024/03/29 00:39:41;;;;;;;0.20;0.20;;;7.90;99.70;7.80;99013.00;;;;4890907;28;92925;-64
2024/03/29 00:42:08;;;;;;;0.70;0.30;;;7.90;99.50;7.90;99014.00;;;;4894856;28;93803;-64
2024/03/29 00:44:35;;;;;;;0.50;0.50;;;7.90;99.20;7.90;99024.00;;;;4897861;28;93905;-65
2024/03/29 00:47:01;;;;;;;0.50;0.37;;;8.00;99.10;7.90;99038.00;;;;4900560;28;93038;-64
2024/03/29 00:49:27;;;;;;;1.07;0.40;;;8.00;99.00;7.90;99023.00;;;;4898175;28;108795;-65
2024/03/29 00:51:52;;;;;;;0.47;0.47;;;8.00;98.80;7.90;99029.00;;;;4896095;28;121626;-65
2024/03/29 00:54:19;;;;;;;1.97;0.43;;;8.00;98.70;7.90;99033.00;;;;4893709;28;121577;-64
2024/03/29 00:56:45;;;;;;;0.53;0.33;;;8.00;98.60;7.90;99030.00;;;;4895685;28;92914;-64
2024/03/29 00:59:10;;;;;;;0.63;0.50;;;8.00;98.60;7.90;99039.00;;;;4894114;28;108030;-65
2024/03/29 01:01:36;;;;;;;0.33;0.20;;;8.00;98.40;7.90;99037.00;;;;4895033;28;122185;-64
2024/03/29 01:04:02;;;;;;;0.30;0.30;;;7.80;98.40;7.80;99043.00;;;;4892696;28;121616;-65
2024/03/29 01:06:27;;;;;;;1.03;0.40;;;8.00;98.40;7.80;99043.00;;;;4891541;28;104452;-65
2024/03/29 01:08:53;;;;;;;0.50;0.40;;;7.90;98.30;7.80;99054.00;;;;4893088;28;107738;-65
2024/03/29 01:11:18;;;;;;;0.50;0.50;;;7.90;98.30;7.80;99054.00;;;;4893041;28;122664;-65
2024/03/29 01:13:44;;;;;;;1.43;0.43;;;7.90;98.20;7.70;99058.00;;;;4889669;28;122105;-64
2024/03/29 01:16:10;;;;;;;0.77;0.47;;;7.90;98.20;7.70;99055.00;;;;4892676;28;110638;-64
2024/03/29 01:18:36;;;;;;;0.83;0.50;;;7.60;98.10;7.70;99056.00;;;;4895535;28;107307;-65
2024/03/29 01:21:01;;;;;;;0.40;0.40;;;7.80;98.20;7.70;99058.00;;;;4895315;28;93013;-65
2024/03/29 01:23:27;;;;;;;0.13;0.10;;;8.90;98.50;7.70;99062.00;;;;4896825;28;125078;-65
2024/03/29 01:25:52;;;;;;;1.60;0.50;;;7.80;98.20;7.70;99073.00;;;;4894716;28;97954;-65
2024/03/29 01:28:18;;;;;;;0.20;0.20;;;7.80;98.20;7.70;99051.00;;;;4893394;28;108638;-65
2024/03/29 01:30:51;;;;;;;2.37;0.50;;;7.80;98.10;7.70;99052.00;;;;4890657;28;94768;-65
2024/03/29 01:33:17;;;;;;;0.77;0.50;;;7.80;98.10;7.70;99034.00;;;;4888152;28;101942;-64
2024/03/29 01:35:42;;;;;;;0.63;0.43;;;7.80;98.10;7.70;99036.00;;;;4892719;28;110918;-65
2024/03/29 01:38:08;;;;;;;0.30;0.27;;;7.80;98.00;7.70;99042.00;;;;4892901;28;109185;-64
2024/03/29 01:40:34;;;;;;;0.40;0.37;;;7.80;98.00;7.70;99031.00;;;;4892162;28;123400;-64
2024/03/29 01:43:03;;;;;;;0.40;0.40;;;7.80;98.00;7.70;99037.00;;;;4890809;28;121539;-64
2024/03/29 01:45:30;;;;;;;1.20;0.20;;;7.80;98.00;7.80;99039.00;;;;4892648;28;111046;-64
2024/03/29 01:47:56;;;;;;;0.37;0.37;;;7.80;97.90;7.70;99041.00;;;;4893566;28;92853;-65
2024/03/29 01:50:22;;;;;;;0.33;0.33;;;7.80;97.90;7.70;99026.00;;;;4889461;28;92322;-65
2024/03/29 01:52:49;;;;;;;0.83;0.67;;;7.80;97.90;7.70;99042.00;;;;4891650;28;119984;-64
2024/03/29 01:55:15;;;;;;;0.13;0.13;;;7.80;97.90;7.60;99041.00;;;;4890678;28;111129;-65
2024/03/29 01:57:41;;;;;;;0.30;0.30;;;7.70;97.90;7.60;99042.00;;;;4892059;28;95276;-65
2024/03/29 02:00:08;;;;;;;1.60;0.40;;;7.70;97.90;7.60;99048.00;;;;4890157;28;122953;-65
2024/03/29 02:02:34;;;;;;;0.50;0.50;;;8.30;98.10;7.70;99044.00;;;;4891755;28;93497;-66
2024/03/29 02:05:01;;;;;;;0.10;0.10;;;7.70;97.90;7.70;99050.00;;;;4891332;28;110073;-64
2024/03/29 02:07:27;;;;;;;0.83;0.50;;;7.70;97.90;7.60;99052.00;;;;4888723;28;107740;-64
2024/03/29 02:09:52;;;;;;;0.50;0.50;;;7.80;97.90;7.60;99051.00;;;;4891914;28;123636;-63
2024/03/29 02:12:18;;;;;;;1.10;0.67;;;7.70;97.90;7.60;99044.00;;;;4890301;28;122605;-64
2024/03/29 02:14:44;;;;;;;0.33;0.33;;;7.70;97.90;7.50;99043.00;;;;4893147;28;109528;-64
2024/03/29 02:17:12;;;;;;;0.10;0.10;;;8.00;98.00;7.50;99031.00;;;;4892086;28;108880;-64
2024/03/29 02:19:38;;;;;;;1.70;0.47;;;8.50;98.20;7.50;99047.00;;;;4896246;28;108954;-64
2024/03/29 02:22:06;;;;;;;0.20;0.20;;;7.60;97.90;7.50;99058.00;;;;4892929;28;122056;-63
2024/03/29 02:24:32;;;;;;;0.57;0.30;;;7.60;97.90;7.50;99059.00;;;;4895391;28;92898;-64
2024/03/29 02:26:57;;;;;;;0.47;0.30;;;7.70;97.90;7.50;99044.00;;;;4895365;28;93197;-64
2024/03/29 02:29:26;;;;;;;0.83;0.50;;;7.60;97.90;7.50;99057.00;;;;4893002;28;93486;-64
2024/03/29 02:31:55;;;;;;;1.10;0.53;;;7.60;97.90;7.50;99044.00;;;;4898349;28;121499;-63
2024/03/29 02:34:21;;;;;;;0.70;0.70;;;7.70;98.00;7.50;99038.00;;;;4892568;28;110522;-63
2024/03/29 02:36:47;;;;;;;4.57;0.47;;;7.60;97.90;7.50;99048.00;;;;4899140;28;106249;-64
2024/03/29 02:39:12;;;;;;;0.47;0.40;;;7.60;98.00;7.50;99051.00;;;;4900132;28;92373;-64
2024/03/29 02:41:38;;;;;;;0.20;0.10;;;7.60;98.00;7.50;99053.00;;;;4898645;28;119949;-65
2024/03/29 02:44:04;;;;;;;0.40;0.30;;;7.50;97.90;7.40;99049.00;;;;4900767;28;93151;-64
2024/03/29 02:46:29;;;;;;;0.33;0.30;;;7.70;98.00;7.40;99055.00;;;;4899127;28;101065;-65
2024/03/29 02:48:55;;;;;;;0.43;0.43;;;7.70;97.90;7.40;99058.00;;;;4897116;28;121253;-64
2024/03/29 02:51:20;;;;;;;0.77;0.47;;;7.90;98.10;7.40;99059.00;;;;4907884;28;121737;-65
2024/03/29 02:53:46;;;;;;;0.97;0.70;;;7.60;97.90;7.40;99059.00;;;;4897683;28;109688;-65
2024/03/29 02:56:14;;;;;;;1.80;0.30;;;7.50;98.00;7.40;99058.00;;;;4895175;28;98835;-64
2024/03/29 02:58:39;;;;;;;0.20;0.20;;;7.70;97.90;7.40;99059.00;;;;4900608;28;93112;-64
2024/03/29 03:01:07;;;;;;;0.07;0.07;;;7.50;97.90;7.30;99064.00;;;;4898917;28;122114;-64
2024/03/29 03:03:33;;;;;;;1.70;0.50;;;7.50;97.90;7.30;99077.00;;;;4900973;28;92488;-64
2024/03/29 03:05:58;;;;;;;0.60;0.47;;;7.40;97.90;7.30;99077.00;;;;4900905;28;108794;-64
2024/03/29 03:11:08;;;;;;;0.43;0.27;;;7.40;97.90;7.30;99074.00;;;;4907288;28;93955;-64
2024/03/29 03:13:34;;;;;;;0.27;0.20;;;7.40;97.90;7.20;99078.00;;;;4896557;28;93083;-64
2024/03/29 03:15:59;;;;;;;0.30;0.30;;;7.40;97.90;7.20;99081.00;;;;4899625;28;92875;-65
2024/03/29 03:18:25;;;;;;;0.93;0.20;;;7.40;97.90;7.20;99093.00;;;;4898243;28;121382;-65
2024/03/29 03:20:55;;;;;;;1.17;0.20;;;7.20;97.90;7.20;99081.00;;;;4897012;28;93961;-64
2024/03/29 03:23:21;;;;;;;0.30;0.30;;;7.30;98.00;7.10;99082.00;;;;4897987;28;93055;-65
2024/03/29 03:26:00;;;;;;;0.67;0.27;;;7.80;98.10;7.10;99082.00;;;;4898048;28;93058;-64
2024/03/29 03:28:26;;;;;;;0.77;0.40;;;7.50;98.10;7.10;99089.00;;;;4907303;28;93184;-65
2024/03/29 03:30:53;;;;;;;0.30;0.20;;;7.20;98.00;7.10;99081.00;;;;4895663;28;92884;-64
2024/03/29 03:33:20;;;;;;;0.37;0.30;;;7.30;98.00;7.10;99073.00;;;;4898706;28;93116;-64
2024/03/29 03:35:46;;;;;;;0.40;0.40;;;7.20;98.00;7.10;99086.00;;;;4895242;28;96679;-65
2024/03/29 03:38:12;;;;;;;0.40;0.40;;;7.20;98.10;7.10;99090.00;;;;4897566;28;93358;-64
2024/03/29 03:40:39;;;;;;;0.50;0.50;;;7.30;98.00;7.10;99078.00;;;;4897501;28;99134;-64
2024/03/29 03:43:06;;;;;;;0.40;0.40;;;7.90;98.20;7.10;99070.00;;;;4893330;28;94430;-64
2024/03/29 03:45:40;;;;;;;0.50;0.50;;;7.40;98.10;7.00;99072.00;;;;4893021;28;92765;-64
2024/03/29 03:48:10;;;;;;;0.30;0.30;;;7.20;98.10;7.00;99081.00;;;;4911001;28;93085;-64
2024/03/29 03:50:37;;;;;;;0.73;0.37;;;7.20;98.10;7.00;99073.00;;;;4901858;28;93075;-64
2024/03/29 03:53:03;;;;;;;0.33;0.20;;;7.10;98.00;7.00;99076.00;;;;4900964;28;92766;-64
2024/03/29 03:55:29;;;;;;;0.50;0.40;;;7.20;98.10;7.00;99082.00;;;;4895146;28;95745;-64
2024/03/29 03:57:55;;;;;;;0.10;0.10;;;7.20;98.10;6.90;99086.00;;;;4895175;28;93641;-64
2024/03/29 04:00:22;;;;;;;0.30;0.30;;;7.60;98.20;7.00;99094.00;;;;4895297;28;123334;-64
2024/03/29 04:02:51;;;;;;;0.27;0.27;;;7.10;98.10;6.90;99082.00;;;;4899516;28;92823;-63
2024/03/29 04:05:21;;;;;;;1.57;0.50;;;7.00;98.10;6.90;99081.00;;;;4897171;28;92971;-64
2024/03/29 04:07:47;;;;;;;0.63;0.60;;;7.10;98.10;7.00;99081.00;;;;4894396;28;122370;-64
2024/03/29 04:10:13;;;;;;;0.73;0.40;;;7.00;98.10;7.00;99076.00;;;;4896388;28;93050;-65
2024/03/29 04:12:39;;;;;;;0.40;0.40;;;7.10;98.10;7.00;99066.00;;;;4892986;28;92928;-64
2024/03/29 04:15:06;;;;;;;0.47;0.20;;;7.10;98.00;7.00;99083.00;;;;4893167;28;96575;-64
2024/03/29 04:17:32;;;;;;;0.93;0.57;;;7.10;97.90;7.00;99072.00;;;;4895213;28;92975;-64
2024/03/29 04:19:59;;;;;;;0.30;0.30;;;7.10;97.90;6.90;99076.00;;;;4896930;28;93166;-64
2024/03/29 04:22:27;;;;;;;0.37;0.20;;;7.00;97.90;6.90;99073.00;;;;4895032;28;92670;-64
2024/03/29 04:24:53;;;;;;;0.30;0.30;;;7.00;97.90;6.90;99063.00;;;;4892336;28;93816;-64
2024/03/29 04:27:18;;;;;;;1.43;0.60;;;7.20;97.90;7.00;99069.00;;;;4892292;28;94136;-64
2024/03/29 04:29:44;;;;;;;3.40;0.37;;;7.10;97.90;7.00;99059.00;;;;4893292;28;121028;-63
2024/03/29 04:32:10;;;;;;;3.93;1.10;;;7.20;97.90;6.90;99070.00;;;;4893265;28;110039;-64
2024/03/29 04:34:35;;;;;;;0.93;0.50;;;7.10;97.80;7.00;99078.00;;;;4897066;28;93148;-64
2024/03/29 04:37:01;;;;;;;0.40;0.30;;;7.10;97.80;6.90;99072.00;;;;4896917;28;123115;-64
2024/03/29 04:39:27;;;;;;;0.93;0.60;;;7.10;97.80;7.00;99086.00;;;;4898171;28;93780;-64
2024/03/29 04:41:53;;;;;;;0.67;0.40;;;7.10;97.70;7.00;99077.00;;;;4894889;28;110697;-63
2024/03/29 04:44:27;;;;;;;0.47;0.47;;;7.10;97.70;7.00;99072.00;;;;4896381;28;92908;-64
2024/03/29 04:46:54;;;;;;;0.30;0.30;;;7.20;97.70;7.00;99075.00;;;;4894187;28;93772;-64
2024/03/29 04:49:28;;;;;;;0.33;0.20;;;7.00;97.60;7.00;99070.00;;;;4894192;28;93979;-64
2024/03/29 04:51:53;;;;;;;1.43;0.40;;;7.20;97.50;7.10;99076.00;;;;4893899;28;92983;-63
2024/03/29 04:54:19;;;;;;;0.73;0.30;;;7.10;97.50;7.10;99083.00;;;;4893718;28;106971;-64
2024/03/29 04:56:45;;;;;;;0.20;0.20;;;7.20;97.40;7.10;99064.00;;;;4894078;28;95339;-64
2024/03/29 04:59:11;;;;;;;0.40;0.40;;;7.20;97.40;7.10;99064.00;;;;4894011;28;94665;-63
2024/03/29 05:01:36;;;;;;;0.77;0.50;;;7.20;97.40;7.10;99076.00;;;;4894085;28;100790;-65
2024/03/29 05:04:06;;;;;;;1.50;0.70;;;7.30;97.30;7.20;99085.00;;;;4907031;28;94270;-64
2024/03/29 05:06:31;;;;;;;0.43;0.43;;;7.20;97.60;7.20;99090.00;;;;4897177;28;94039;-63
2024/03/29 05:08:57;;;;;;;2.13;0.80;;;7.30;97.20;7.20;99067.00;;;;4891437;28;121632;-63
2024/03/29 05:11:23;;;;;;;1.47;0.40;;;7.30;97.10;7.20;99059.00;;;;4897694;28;93362;-64
2024/03/29 05:13:48;;;;;;;1.60;0.53;;;7.40;97.10;7.30;99062.00;;;;4894850;28;109017;-64
2024/03/29 05:16:15;;;;;;;2.23;0.63;;;7.30;97.00;7.30;99067.00;;;;4894729;28;93262;-64
2024/03/29 05:18:40;;;;;;;1.50;0.93;;;7.40;97.00;7.40;99076.00;;;;4878947;28;93503;-64
2024/03/29 05:21:06;;;;;;;1.53;0.60;;;7.50;96.90;7.40;99068.00;;;;4891543;28;110309;-63
2024/03/29 05:23:31;;;;;;;0.40;0.40;;;7.50;96.80;7.50;99066.00;;;;4892026;28;93204;-63
2024/03/29 05:25:57;;;;;;;0.80;0.50;;;7.60;96.70;7.60;99056.00;;;;4888079;28;122572;-64
2024/03/29 05:28:23;;;;;;;2.50;0.50;;;7.60;96.50;7.70;99042.00;;;;4891021;28;121925;-65
2024/03/29 05:30:48;;;;;;;0.63;0.57;;;7.80;96.40;7.80;99050.00;;;;4891743;28;110183;-63
2024/03/29 05:33:15;;;;;;;0.50;0.50;;;7.90;96.20;7.90;99057.00;;;;4887120;28;107668;-63
2024/03/29 05:35:41;;;;;;;0.50;0.40;;;8.00;96.10;8.10;99060.00;;;;4892449;28;94311;-64
2024/03/29 05:38:06;;;;;;;1.33;0.80;;;8.10;96.00;8.20;99065.00;;;;4892579;28;94439;-64
2024/03/29 05:40:32;;;;;;;1.03;0.57;;;8.20;96.20;8.40;99060.00;;;;4893695;28;108610;-63
2024/03/29 05:42:58;;;;;;;1.20;0.60;;;8.40;95.50;8.50;99060.00;;;;4894382;28;109167;-63
2024/03/29 05:45:28;;;;;;;1.20;0.40;;;8.50;95.20;8.60;99053.00;;;;4892710;28;94019;-63
2024/03/29 05:47:58;;;;;;;0.40;0.40;;;8.60;95.00;8.80;99061.00;;;;4895107;28;93240;-65
2024/03/29 05:50:25;;;;;;;1.27;0.90;;;8.70;94.80;8.90;99053.00;;;;4891209;28;93092;-65
2024/03/29 05:52:52;;;;;;;1.30;0.60;;;8.90;94.50;9.00;99051.00;;;;4892752;28;93304;-63
2024/03/29 05:55:18;;;;;;;1.57;0.70;;;9.00;94.50;9.00;99058.00;;;;4895920;28;93132;-64
2024/03/29 05:57:48;;;;;;;0.97;0.47;;;9.10;94.20;9.10;99060.00;;;;4896816;28;93148;-64
2024/03/29 06:00:14;;;;;;;1.40;0.60;;;9.10;93.90;9.10;99079.00;;;;4892975;28;93279;-63
2024/03/29 06:02:41;;;;;;;1.33;0.67;;;9.20;94.00;9.10;99084.00;;;;4888849;28;94108;-64
2024/03/29 06:05:08;;;;;;;1.80;0.40;;;9.10;93.70;9.10;99092.00;;;;4892467;28;93556;-63
2024/03/29 06:07:34;;;;;;;4.80;0.77;;;9.20;93.80;9.10;99095.00;;;;4890464;28;93153;-63
2024/03/29 06:10:04;;;;;;;0.70;0.47;;;9.20;93.70;9.10;99097.00;;;;4894292;28;92990;-63
2024/03/29 06:12:30;;;;;;;0.60;0.50;;;9.20;93.70;9.10;99108.00;;;;4892871;28;92827;-63
2024/03/29 06:17:57;;;;;;;0.27;0.27;;;9.20;93.70;9.10;99119.00;;;;4889090;28;101298;-63
2024/03/29 06:20:23;;;;;;;0.63;0.63;;;9.20;93.80;9.10;99125.00;;;;4892065;28;92639;-62
2024/03/29 06:22:49;;;;;;;0.93;0.57;;;9.20;93.90;9.10;99125.00;;;;4893858;28;99731;-62
2024/03/29 06:25:15;;;;;;;0.60;0.57;;;9.20;94.00;9.10;99131.00;;;;4891105;28;121886;-65
2024/03/29 06:27:47;;;;;;;0.50;0.47;;;9.20;94.00;9.20;99145.00;;;;4892218;28;94179;-63
2024/03/29 06:30:14;;;;;;;1.00;0.67;;;9.30;94.00;9.20;99152.00;;;;4893946;28;92948;-64
2024/03/29 06:32:40;;;;;;;0.70;0.70;;;9.40;93.90;9.20;99147.00;;;;4895091;28;93043;-64
2024/03/29 06:35:06;;;;;;;0.80;0.40;;;9.30;93.90;9.30;99154.00;;;;4897099;28;123292;-64
2024/03/29 06:37:32;;;;;;;0.80;0.50;;;9.30;94.00;9.30;99161.00;;;;4900410;28;93211;-63
2024/03/29 06:39:57;;;;;;;0.67;0.63;;;9.30;93.90;9.30;99161.00;;;;4900574;28;110662;-64
2024/03/29 06:42:23;;;;;;;0.73;0.40;;;9.40;93.90;9.30;99146.00;;;;4895277;28;108983;-63
2024/03/29 06:44:49;;;;;;;2.37;0.63;;;9.50;93.90;9.40;99140.00;;;;4897088;28;92324;-64
2024/03/29 06:47:15;;;;;;;0.70;0.40;;;9.40;93.70;9.40;99133.00;;;;4898653;28;93250;-63
2024/03/29 06:49:41;;;;;;;0.20;0.20;;;9.40;93.60;9.40;99133.00;;;;4898261;28;92726;-64
2024/03/29 06:52:06;;;;;;;0.93;0.67;;;9.40;93.50;9.40;99131.00;;;;4893035;28;93946;-64
2024/03/29 06:54:33;;;;;;;2.37;0.60;;;9.50;93.50;9.50;99130.00;;;;4890839;28;122904;-63
2024/03/29 06:56:59;;;;;;;0.40;0.30;;;9.50;93.50;9.50;99140.00;;;;4893781;28;93487;-64
2024/03/29 06:59:26;;;;;;;0.40;0.27;;;9.60;93.50;9.50;99163.00;;;;4891342;28;92961;-64
2024/03/29 07:01:52;;;;;;;0.73;0.50;;;9.60;93.50;9.60;99177.00;;;;4893885;28;92471;-64
2024/03/29 07:04:23;;;;;;;0.77;0.30;;;9.60;93.60;9.60;99170.00;;;;4888125;28;93075;-63
2024/03/29 07:06:51;;;;;;;2.20;0.83;;;9.60;93.60;9.60;99169.00;;;;4894111;28;93682;-63
2024/03/29 07:09:18;;;;;;;0.60;0.40;;;9.60;93.60;9.70;99167.00;;;;4894146;28;92435;-63
2024/03/29 07:11:47;;;;;;;2.50;0.47;;;9.70;93.50;9.70;99176.00;;;;4894982;28;92774;-64
2024/03/29 07:14:14;;;;;;;1.43;0.53;;;9.70;93.40;9.70;99177.00;;;;4894795;28;94050;-63
2024/03/29 07:16:39;;;;;;;0.70;0.40;;;9.70;93.10;9.80;99172.00;;;;4892547;28;93893;-64
2024/03/29 07:19:05;;;;;;;0.37;0.30;;;9.80;93.10;9.80;99180.00;;;;4891267;28;110207;-63
2024/03/29 07:21:31;;;;;;;0.47;0.47;;;9.90;93.00;9.90;99184.00;;;;4891075;28;109660;-64
2024/03/29 07:23:57;;;;;;;0.47;0.40;;;9.90;92.90;9.90;99186.00;;;;4892212;28;93947;-63
2024/03/29 07:26:23;;;;;;;0.43;0.43;;;9.90;92.80;10.00;99180.00;;;;4890503;28;119495;-64
2024/03/29 07:28:49;;;;;;;0.80;0.43;;;10.00;92.50;10.00;99188.00;;;;4895907;28;93302;-63
2024/03/29 07:31:14;;;;;;;1.37;0.20;;;10.00;92.40;10.10;99173.00;;;;4892984;28;104730;-63
2024/03/29 07:33:40;;;;;;;0.90;0.30;;;10.10;92.70;10.20;99180.00;;;;4892693;28;93461;-65
2024/03/29 07:36:07;;;;;;;2.03;1.10;;;10.20;92.40;10.20;99188.00;;;;4890087;28;122236;-63
2024/03/29 07:38:33;;;;;;;13.23;5.20;;;10.20;92.20;10.30;99195.00;;;;4891356;28;93537;-64
2024/03/29 07:40:59;;;;;;;4.20;1.43;;;10.30;92.10;10.30;99183.00;;;;4891043;28;108374;-64
2024/03/29 07:43:25;;;;;;;0.47;0.30;;;10.30;92.00;10.40;99166.00;;;;4889046;28;122567;-65
2024/03/29 07:45:51;;;;;;;1.90;1.17;;;10.40;91.70;10.40;99164.00;;;;4888967;28;93403;-64
2024/03/29 07:48:17;;;;;;;0.50;0.50;;;10.50;91.60;10.50;99165.00;;;;4888920;28;93168;-63
2024/03/29 07:50:45;;;;;;;1.23;1.13;;;10.50;91.70;10.60;99171.00;;;;4892003;28;94081;-64
2024/03/29 07:53:11;;;;;;;1.27;1.17;;;10.60;91.70;10.70;99181.00;;;;4889795;28;116652;-64
2024/03/29 07:55:41;;;;;;;1.13;1.00;;;10.70;91.70;10.80;99181.00;;;;4892035;28;93076;-65
2024/03/29 07:58:10;;;;;;;0.70;0.70;;;10.70;91.20;10.80;99182.00;;;;4890635;28;92525;-65
2024/03/29 08:00:41;;;;;;;1.73;0.77;;;10.80;90.80;10.90;99177.00;;;;4889790;28;92985;-64
2024/03/29 08:03:06;;;;;;;0.60;0.60;;;11.30;91.00;11.00;99178.00;;;;4889789;28;96237;-65
2024/03/29 08:05:33;;;;;;;0.83;0.43;;;10.90;90.80;11.00;99182.00;;;;4889266;28;124200;-65
2024/03/29 08:07:59;;;;;;;0.70;0.40;;;11.00;90.60;11.10;99196.00;;;;4892676;28;93006;-66
2024/03/29 08:10:25;;;;;;;0.77;0.50;;;11.10;90.60;11.20;99200.00;;;;4887577;28;98468;-65
2024/03/29 08:12:50;;;;;;;0.40;0.40;;;11.10;90.10;11.10;99203.00;;;;4890511;28;123769;-64
2024/03/29 08:15:18;;;;;;;4.33;0.70;;;11.10;89.00;11.20;99188.00;;;;4887996;28;119354;-63
2024/03/29 08:17:45;;;;;;;0.30;0.20;;;11.20;88.70;11.20;99204.00;;;;4885909;28;92984;-63
2024/03/29 08:20:11;;;;;;;0.50;0.50;;;11.20;89.00;11.20;99201.00;;;;4891723;28;92906;-63
2024/03/29 08:22:36;;;;;;;0.80;0.30;;;11.20;88.20;11.20;99200.00;;;;4895072;28;93902;-64
2024/03/29 08:25:02;;;;;;;2.33;0.90;;;11.20;88.00;11.30;99217.00;;;;4889952;28;121938;-63
2024/03/29 08:27:28;;;;;;;1.73;0.90;;;11.20;87.80;11.30;99215.00;;;;4891293;28;100581;-64
2024/03/29 08:29:54;;;;;;;0.80;0.70;;;11.30;87.20;11.30;99222.00;;;;4894177;28;108820;-63
2024/03/29 08:32:19;;;;;;;1.83;0.93;;;11.30;86.70;11.40;99221.00;;;;4901810;28;92691;-64
2024/03/29 08:34:45;;;;;;;0.40;0.40;;;11.30;85.80;11.40;99243.00;;;;4902019;28;109289;-63
2024/03/29 08:37:11;;;;;;;3.30;0.53;;;11.40;85.70;11.40;99233.00;;;;4893190;28;111545;-65
2024/03/29 08:39:37;;;;;;;0.57;0.43;;;11.40;86.50;11.50;99232.00;;;;4887757;28;109273;-65
2024/03/29 08:42:05;;;;;;;0.83;0.80;;;11.40;85.40;11.50;99214.00;;;;4889085;28;93537;-64
2024/03/29 08:44:34;;;;;;;1.43;0.60;;;11.50;84.30;11.60;99224.00;;;;4891180;28;94045;-65
2024/03/29 08:47:02;;;;;;;2.97;1.33;;;11.60;84.70;11.70;99226.00;;;;4892014;28;92259;-64
2024/03/29 08:49:29;;;;;;;0.50;0.47;;;11.40;84.60;11.70;99230.00;;;;4893421;28;92970;-64
2024/03/29 08:51:55;;;;;;;1.50;0.57;;;11.70;84.10;11.80;99221.00;;;;4892627;28;94014;-65
2024/03/29 08:54:21;;;;;;;0.83;0.60;;;11.70;84.50;11.80;99222.00;;;;4890909;28;104729;-64
2024/03/29 08:56:47;;;;;;;0.97;0.87;;;11.80;82.70;11.90;99216.00;;;;4890078;28;103437;-65
2024/03/29 08:59:14;;;;;;;2.70;0.90;;;11.80;82.90;11.90;99210.00;;;;4887640;28;104157;-64
2024/03/29 09:01:44;;;;;;;1.70;0.83;;;11.80;82.60;11.90;99245.00;;;;4890014;28;93754;-64
2024/03/29 09:04:14;;;;;;;1.10;0.50;;;11.90;82.30;12.00;99224.00;;;;4887676;28;112042;-64
2024/03/29 09:06:39;;;;;;;0.97;0.80;;;12.00;82.10;12.10;99235.00;;;;4888462;28;96926;-63
2024/03/29 09:09:06;;;;;;;0.77;0.50;;;12.00;81.20;12.10;99250.00;;;;4890650;28;108131;-65
2024/03/29 09:11:32;;;;;;;0.30;0.30;;;12.10;80.90;12.20;99239.00;;;;4893367;28;92753;-64
2024/03/29 09:13:58;;;;;;;2.57;0.70;;;12.20;80.50;12.30;99247.00;;;;4891215;28;93283;-64
2024/03/29 09:16:25;;;;;;;0.93;0.63;;;12.30;80.70;12.50;99254.00;;;;4892758;28;93100;-64
2024/03/29 09:18:51;;;;;;;0.93;0.67;;;12.40;79.60;12.50;99265.00;;;;4892221;28;99826;-64
2024/03/29 09:21:19;;;;;;;2.37;0.63;;;12.50;77.60;12.60;99264.00;;;;4890831;28;93339;-64
2024/03/29 09:23:46;;;;;;;0.53;0.30;;;12.80;77.30;12.60;99238.00;;;;4889355;28;92990;-64
2024/03/29 09:26:14;;;;;;;1.83;0.67;;;12.60;76.90;12.70;99248.00;;;;4889737;28;111766;-63
2024/03/29 09:28:40;;;;;;;1.03;0.90;;;12.60;76.90;12.70;99257.00;;;;4895690;28;92853;-63
2024/03/29 09:31:05;;;;;;;0.90;0.53;;;12.70;76.60;12.70;99249.00;;;;4895833;28;94281;-62
2024/03/29 09:33:31;;;;;;;1.17;0.87;;;12.70;76.70;12.80;99242.00;;;;4897607;28;93742;-65
2024/03/29 09:35:58;;;;;;;0.63;0.43;;;12.70;76.50;12.80;99230.00;;;;4901021;28;92581;-63
2024/03/29 09:38:26;;;;;;;0.63;0.40;;;12.80;76.30;12.90;99233.00;;;;4900003;28;92979;-63
2024/03/29 09:41:14;;;;;;;1.33;0.60;;;12.80;76.90;12.90;99238.00;;;;4902944;28;93699;-65
2024/03/29 09:43:47;;;;;;;0.37;0.23;;;12.90;77.60;13.10;99230.00;;;;4902565;28;94125;-64
2024/03/29 09:46:16;;;;;;;0.83;0.50;;;13.00;78.30;13.30;99221.00;;;;4902047;28;92861;-65
2024/03/29 09:48:45;;;;;;;1.60;0.50;;;13.10;78.00;13.60;99221.00;;;;4899131;28;92856;-63
2024/03/29 09:51:15;;;;;;;0.60;0.60;;;13.30;78.30;13.80;99209.00;;;;4898074;28;93194;-63
2024/03/29 09:53:43;;;;;;;2.37;0.90;;;13.60;77.40;14.10;99171.00;;;;4893287;28;95065;-63
2024/03/29 09:56:09;;;;;;;0.30;0.30;;;13.90;76.40;14.50;99175.00;;;;4893996;28;92841;-64
2024/03/29 09:58:36;;;;;;;5.45;0.85;;;14.20;75.70;14.80;99164.00;;;;4892622;28;107391;-64
2024/03/29 10:01:04;;;;;;;0.55;0.55;;;14.60;75.30;15.20;99157.00;;;;4892896;28;92334;-64
2024/03/29 10:03:36;;;;;;;0.63;0.45;;;14.90;74.30;15.50;99140.00;;;;4895749;28;93229;-64
2024/03/29 10:06:02;;;;;;;0.47;0.30;;;15.30;74.20;15.90;99129.00;;;;4892726;28;93272;-64
2024/03/29 10:08:30;;;;;;;0.82;0.32;;;15.60;70.30;16.20;99126.00;;;;4892458;28;93767;-64
2024/03/29 10:10:57;;;;;;;1.45;0.10;;;15.90;70.00;16.50;99116.00;;;;4895207;28;93551;-64
2024/03/29 10:13:24;;;;;;;0.13;0.13;;;16.20;68.20;16.70;99117.00;;;;4898300;28;103371;-64
2024/03/29 10:15:55;;;;;;;0.45;0.20;;;16.40;64.80;16.80;99112.00;;;;4898547;28;93012;-64
2024/03/29 10:18:25;;;;;;;0.30;0.22;;;16.60;61.70;17.00;99128.00;;;;4898388;28;93374;-63
2024/03/29 10:21:02;;;;;;;0.10;0.10;;;16.80;62.60;17.20;99128.00;;;;4897422;28;93233;-65
2024/03/29 10:23:28;;;;;;;1.27;0.52;;;16.90;60.50;17.40;99133.00;;;;4894818;28;93848;-65
2024/03/29 10:25:54;;;;;;;1.50;0.50;;;17.10;60.40;17.40;99131.00;;;;4891701;28;92414;-64
2024/03/29 10:28:20;;;;;;;0.35;0.35;;;17.20;57.30;17.40;99137.00;;;;4892491;28;107416;-65
2024/03/29 10:30:46;;;;;;;0.47;0.40;;;17.30;55.50;17.30;99121.00;;;;4893371;28;97604;-64
2024/03/29 10:33:13;;;;;;;1.05;0.40;;;17.30;53.50;17.10;99148.00;;;;4890908;28;121547;-64
2024/03/29 10:35:44;;;;;;;2.30;0.70;;;17.10;50.70;16.90;99145.00;;;;4892978;28;98682;-64
2024/03/29 10:38:11;;;;;;;0.20;0.20;;;16.90;49.80;16.80;99133.00;;;;4891157;28;95031;-65
2024/03/29 10:40:41;;;;;;;1.10;0.63;;;16.80;49.20;16.70;99125.00;;;;4893733;28;93258;-64
2024/03/29 10:43:16;;;;;;;0.95;0.65;;;16.70;49.60;16.70;99120.00;;;;4897329;28;93301;-65
2024/03/29 10:45:42;;;;;;;0.10;0.10;;;16.60;49.10;16.70;99105.00;;;;4894441;28;93204;-64
2024/03/29 10:48:10;;;;;;;0.40;0.20;;;16.60;48.70;16.60;99087.00;;;;4891791;28;94716;-64
2024/03/29 10:50:37;;;;;;;0.45;0.32;;;16.60;48.10;16.80;99068.00;;;;4892008;28;93032;-65
2024/03/29 10:53:03;;;;;;;0.20;0.20;;;16.60;49.30;16.90;99073.00;;;;4891439;28;92997;-65
2024/03/29 10:55:36;;;;;;;0.32;0.20;;;16.70;48.50;16.90;99074.00;;;;4894113;28;93199;-64
2024/03/29 10:58:04;;;;;;;0.08;0.08;;;16.80;47.20;17.00;99062.00;;;;4887880;28;100431;-64
2024/03/29 11:00:38;;;;;;;0.35;0.30;;;16.80;47.30;17.00;99071.00;;;;4894725;28;93684;-64
2024/03/29 11:03:18;;;;;;;0.43;0.43;;;16.90;47.20;17.00;99062.00;;;;4895996;28;93412;-64
2024/03/29 11:05:48;;;;;;;0.47;0.30;;;16.90;47.10;17.00;99058.00;;;;4894292;28;93392;-64